Time;durP1;ratioP1;P1;durP2;ratioP2;P2;SDS_P1;SDS_P2;PMS_P1;PMS_P2;Temp;Humidity;BMP_temperature;BMP_pressure;BME280_temperature;BME280_humidity;BME280_pressure;Samples;Min_cycle;Max_cycle;Signal;HPM_P1;HPM_P2
2023/06/02 00:00:54;;;;;;;5.80;5.20;;;17.00;99.90;;;;;;5056705;28;20891;-79
2023/06/02 00:03:19;;;;;;;6.35;5.45;;;16.60;99.90;;;;;;5055935;28;20410;-80
2023/06/02 00:05:46;;;;;;;6.53;5.10;;;16.40;99.90;;;;;;5043431;28;20383;-80
2023/06/02 00:08:12;;;;;;;5.50;4.90;;;16.40;99.90;;;;;;5036213;28;20379;-80
2023/06/02 00:10:38;;;;;;;6.50;5.90;;;16.50;99.90;;;;;;5035886;28;20816;-80
2023/06/02 00:13:03;;;;;;;4.60;4.20;;;16.30;99.90;;;;;;5036119;28;20395;-80
2023/06/02 00:15:31;;;;;;;5.40;4.90;;;16.10;99.90;;;;;;5037689;28;20385;-80
2023/06/02 00:17:57;;;;;;;6.10;5.20;;;16.00;99.90;;;;;;5038320;28;20394;-80
2023/06/02 00:20:26;;;;;;;6.70;4.93;;;15.90;99.90;;;;;;5018496;28;20391;-80
2023/06/02 00:22:52;;;;;;;5.05;4.55;;;15.80;99.90;;;;;;5018621;28;20415;-80
2023/06/02 00:25:18;;;;;;;6.57;4.70;;;15.70;99.90;;;;;;5034614;28;20379;-80
2023/06/02 00:27:43;;;;;;;4.93;4.40;;;16.00;99.90;;;;;;5035153;28;20487;-80
2023/06/02 00:30:09;;;;;;;4.90;4.50;;;16.90;99.90;;;;;;5035503;28;20750;-80
2023/06/02 00:32:35;;;;;;;6.65;5.45;;;16.10;99.90;;;;;;5035539;28;20931;-80
2023/06/02 00:35:00;;;;;;;5.17;4.63;;;15.70;99.90;;;;;;5035071;28;20395;-80
2023/06/02 00:37:26;;;;;;;7.60;5.20;;;15.60;99.90;;;;;;5016993;28;20403;-80
2023/06/02 00:39:51;;;;;;;5.22;4.72;;;15.70;99.90;;;;;;5017440;28;20391;-80
2023/06/02 00:42:19;;;;;;;5.07;4.50;;;15.60;99.90;;;;;;5019710;28;20442;-80
2023/06/02 00:44:44;;;;;;;5.18;4.68;;;15.80;99.90;;;;;;5023521;28;20391;-80
2023/06/02 00:47:10;;;;;;;5.63;4.40;;;15.40;99.90;;;;;;5034290;28;20406;-80
2023/06/02 00:49:35;;;;;;;7.43;4.90;;;16.30;99.90;;;;;;5034804;28;20456;-80
2023/06/02 00:52:02;;;;;;;4.93;4.40;;;15.60;99.90;;;;;;5016989;28;20391;-80
2023/06/02 00:54:28;;;;;;;5.35;4.30;;;15.70;99.90;;;;;;5033958;28;20418;-80
2023/06/02 00:56:54;;;;;;;4.90;4.20;;;15.70;99.90;;;;;;5034192;28;20900;-80
2023/06/02 00:59:23;;;;;;;4.70;4.20;;;15.60;99.90;;;;;;5015747;28;20391;-80
2023/06/02 01:01:50;;;;;;;5.43;4.50;;;16.30;99.90;;;;;;5034392;28;20959;-80
2023/06/02 01:04:17;;;;;;;5.00;4.50;;;15.40;99.90;;;;;;5033000;28;20465;-80
2023/06/02 01:06:44;;;;;;;5.15;4.50;;;15.20;99.90;;;;;;5033486;28;20415;-80
2023/06/02 01:09:13;;;;;;;4.60;4.20;;;15.70;99.90;;;;;;5018950;28;20448;-80
2023/06/02 01:11:38;;;;;;;5.75;4.50;;;15.60;99.90;;;;;;5035607;28;20391;-80
2023/06/02 01:14:04;;;;;;;5.30;4.80;;;15.10;99.90;;;;;;5034406;28;20746;-80
2023/06/02 01:16:32;;;;;;;5.35;4.28;;;15.50;99.90;;;;;;5033779;28;20757;-80
2023/06/02 01:18:59;;;;;;;5.10;4.38;;;15.50;99.90;;;;;;5016383;28;20757;-80
2023/06/02 01:21:30;;;;;;;5.20;4.57;;;14.80;99.90;;;;;;5034542;28;20403;-80
2023/06/02 01:23:57;;;;;;;5.90;4.28;;;15.00;99.90;;;;;;5034318;28;20869;-80
2023/06/02 01:26:23;;;;;;;4.95;4.10;;;15.20;99.90;;;;;;5033975;28;20817;-80
2023/06/02 01:28:49;;;;;;;4.97;4.47;;;14.80;99.90;;;;;;5034917;28;20407;-80
2023/06/02 01:31:18;;;;;;;5.75;3.88;;;15.10;99.90;;;;;;5034356;28;20750;-80
2023/06/02 01:34:01;;;;;;;5.85;4.07;;;15.00;99.90;;;;;;5016875;28;20445;-80
2023/06/02 01:36:29;;;;;;;4.63;4.00;;;15.20;99.90;;;;;;5032926;28;20429;-80
2023/06/02 01:38:57;;;;;;;5.78;4.20;;;15.20;99.90;;;;;;5033954;28;20387;-80
2023/06/02 01:41:25;;;;;;;4.00;3.60;;;14.90;99.90;;;;;;5033780;28;20440;-80
2023/06/02 01:43:52;;;;;;;5.35;4.28;;;15.20;99.90;;;;;;5033817;28;20514;-80
2023/06/02 01:46:17;;;;;;;5.00;4.50;;;15.30;99.90;;;;;;5033461;28;20394;-80
2023/06/02 01:48:43;;;;;;;4.10;3.70;;;15.10;99.90;;;;;;5015712;28;20738;-80
2023/06/02 01:51:08;;;;;;;6.10;4.80;;;14.90;99.90;;;;;;5033518;28;20395;-80
2023/06/02 01:53:34;;;;;;;4.68;4.28;;;14.60;99.90;;;;;;5015842;28;20510;-80
2023/06/02 01:56:00;;;;;;;6.07;4.70;;;14.80;99.90;;;;;;5033457;28;20486;-80
2023/06/02 01:58:26;;;;;;;4.65;4.00;;;14.90;99.90;;;;;;5033550;28;20904;-80
2023/06/02 02:00:54;;;;;;;5.75;4.50;;;14.60;99.90;;;;;;5033620;28;20387;-80
2023/06/02 02:03:22;;;;;;;5.20;4.50;;;14.90;99.90;;;;;;5016271;28;20456;-80
2023/06/02 02:05:47;;;;;;;5.00;4.60;;;14.60;99.90;;;;;;5035333;28;20391;-79
2023/06/02 02:08:13;;;;;;;4.73;4.33;;;14.60;99.90;;;;;;5033170;28;20395;-81
2023/06/02 02:10:38;;;;;;;4.30;3.90;;;15.30;99.90;;;;;;5032633;28;20399;-80
2023/06/02 02:13:04;;;;;;;5.50;4.10;;;14.70;99.90;;;;;;5033107;28;20390;-80
2023/06/02 02:15:30;;;;;;;7.30;5.47;;;14.50;99.90;;;;;;5032555;28;20470;-80
2023/06/02 02:17:56;;;;;;;4.95;4.45;;;14.70;99.90;;;;;;5014016;28;20391;-80
2023/06/02 02:20:22;;;;;;;5.00;4.60;;;14.90;99.90;;;;;;5014931;28;20407;-80
2023/06/02 02:22:48;;;;;;;5.20;4.70;;;14.40;99.90;;;;;;5014818;28;20406;-80
2023/06/02 02:25:14;;;;;;;5.20;4.70;;;14.90;99.90;;;;;;5032493;28;20485;-80
2023/06/02 02:27:40;;;;;;;5.28;4.70;;;14.40;99.90;;;;;;5031895;28;20387;-80
2023/06/02 02:30:07;;;;;;;5.87;5.10;;;14.30;99.90;;;;;;5032700;28;20747;-80
2023/06/02 02:32:38;;;;;;;5.60;5.10;;;15.00;99.90;;;;;;5014775;28;20474;-80
2023/06/02 02:35:04;;;;;;;5.68;5.18;;;14.30;99.90;;;;;;5032460;28;20403;-80
2023/06/02 02:37:30;;;;;;;5.63;4.93;;;14.30;99.90;;;;;;5014390;28;20383;-80
2023/06/02 02:39:56;;;;;;;5.78;5.28;;;14.50;99.90;;;;;;5032323;28;20445;-80
2023/06/02 02:42:21;;;;;;;6.13;5.30;;;14.50;99.90;;;;;;5032502;28;20410;-80
2023/06/02 02:44:47;;;;;;;7.70;5.50;;;15.20;99.90;;;;;;5014419;28;20403;-80
2023/06/02 02:47:12;;;;;;;5.63;5.13;;;14.20;99.90;;;;;;5031510;28;20429;-80
2023/06/02 02:49:38;;;;;;;6.40;5.53;;;14.00;99.90;;;;;;5014598;28;20387;-80
2023/06/02 02:52:04;;;;;;;6.35;5.75;;;14.20;99.90;;;;;;5014289;28;20397;-80
2023/06/02 02:54:29;;;;;;;6.85;5.70;;;14.70;99.90;;;;;;5014031;28;20402;-80
2023/06/02 02:56:55;;;;;;;5.27;4.70;;;14.00;99.90;;;;;;5034383;28;20410;-80
2023/06/02 02:59:21;;;;;;;6.20;5.20;;;14.10;99.90;;;;;;5016064;28;20433;-80
2023/06/02 03:01:47;;;;;;;7.40;5.40;;;14.10;99.90;;;;;;5014388;28;20804;-80
2023/06/02 03:04:24;;;;;;;5.90;5.30;;;14.30;99.90;;;;;;5006571;28;20474;-80
2023/06/02 03:06:52;;;;;;;8.02;5.65;;;14.30;99.90;;;;;;5012090;28;20937;-80
2023/06/02 03:09:19;;;;;;;5.68;4.78;;;14.00;99.90;;;;;;5012808;28;20388;-80
2023/06/02 03:11:45;;;;;;;5.22;4.72;;;14.20;99.90;;;;;;5017676;28;20422;-80
2023/06/02 03:14:11;;;;;;;6.60;5.50;;;13.90;99.90;;;;;;5015742;28;20395;-80
2023/06/02 03:16:44;;;;;;;6.38;5.00;;;13.90;99.90;;;;;;5021289;28;20483;-80
2023/06/02 03:19:13;;;;;;;6.20;5.30;;;14.10;99.90;;;;;;5039853;28;20474;-80
2023/06/02 03:21:43;;;;;;;6.95;5.10;;;13.90;99.90;;;;;;5033885;28;20450;-80
2023/06/02 03:24:13;;;;;;;5.55;4.70;;;14.00;99.90;;;;;;5037053;28;20414;-80
2023/06/02 03:26:40;;;;;;;7.35;5.55;;;13.40;99.90;;;;;;5036100;28;20811;-80
2023/06/02 03:29:07;;;;;;;7.00;6.30;;;13.50;99.90;;;;;;5036162;28;20482;-80
2023/06/02 03:31:32;;;;;;;6.95;5.68;;;14.00;99.90;;;;;;5018317;28;20394;-79
2023/06/02 03:33:58;;;;;;;7.00;5.80;;;14.00;99.90;;;;;;5036426;28;20924;-80
2023/06/02 03:36:25;;;;;;;6.90;5.60;;;13.80;99.90;;;;;;5036170;28;20398;-80
2023/06/02 03:38:50;;;;;;;6.72;5.40;;;13.90;99.90;;;;;;5036534;28;20428;-80
2023/06/02 03:41:16;;;;;;;6.47;5.80;;;13.80;99.90;;;;;;5036201;28;20482;-80
2023/06/02 03:43:41;;;;;;;7.53;5.63;;;13.90;99.90;;;;;;5036912;28;20857;-80
2023/06/02 03:46:07;;;;;;;6.33;5.50;;;14.20;99.90;;;;;;5018056;28;20399;-80
2023/06/02 03:48:33;;;;;;;7.10;5.93;;;13.70;99.90;;;;;;5018292;28;20391;-80
2023/06/02 03:50:58;;;;;;;6.47;5.15;;;13.90;99.90;;;;;;5023187;28;20375;-80
2023/06/02 03:53:24;;;;;;;7.20;6.07;;;14.20;99.90;;;;;;5037520;28;20411;-80
2023/06/02 03:55:50;;;;;;;6.50;5.90;;;13.60;99.90;;;;;;5017396;28;20831;-80
2023/06/02 03:58:15;;;;;;;6.23;5.60;;;13.50;99.90;;;;;;5035775;28;20457;-80
2023/06/02 04:00:41;;;;;;;6.43;5.83;;;13.80;99.90;;;;;;5035989;28;20397;-80
2023/06/02 04:03:09;;;;;;;6.40;5.80;;;13.60;99.90;;;;;;5036122;28;20402;-80
2023/06/02 04:05:34;;;;;;;8.60;6.53;;;12.10;99.90;;;;;;5035179;28;20423;-80
2023/06/02 04:08:00;;;;;;;6.57;5.63;;;13.60;99.90;;;;;;5035831;28;20406;-80
2023/06/02 04:10:28;;;;;;;6.53;5.90;;;13.30;99.90;;;;;;5040192;28;20387;-80
2023/06/02 04:12:53;;;;;;;7.90;6.27;;;13.80;99.90;;;;;;5035785;28;20407;-80
2023/06/02 04:15:19;;;;;;;7.77;5.97;;;14.30;99.90;;;;;;5017816;28;20387;-79
2023/06/02 04:17:44;;;;;;;8.67;6.70;;;14.30;99.90;;;;;;5034780;28;20474;-79
2023/06/02 04:20:12;;;;;;;8.60;6.97;;;14.90;99.90;;;;;;5035639;28;20391;-80
2023/06/02 04:22:37;;;;;;;8.65;6.40;;;14.50;99.90;;;;;;5035318;28;20420;-79
2023/06/02 04:25:03;;;;;;;8.35;5.75;;;15.00;99.90;;;;;;5017126;28;20394;-79
2023/06/02 04:27:29;;;;;;;10.38;6.90;;;14.60;99.90;;;;;;5034688;28;20441;-80
2023/06/02 04:29:54;;;;;;;9.68;6.95;;;14.70;99.90;;;;;;5035796;28;20379;-80
2023/06/02 04:32:20;;;;;;;8.40;6.03;;;15.00;99.90;;;;;;5035117;28;20804;-80
2023/06/02 04:34:46;;;;;;;7.40;6.55;;;14.70;99.90;;;;;;5017734;28;20390;-80
2023/06/02 04:37:12;;;;;;;7.37;5.90;;;14.60;99.90;;;;;;5035320;28;20391;-80
2023/06/02 04:39:37;;;;;;;8.07;5.80;;;14.80;99.90;;;;;;5035710;28;20382;-80
2023/06/02 04:42:03;;;;;;;7.20;5.70;;;14.80;99.90;;;;;;5035495;28;20493;-80
2023/06/02 04:44:29;;;;;;;8.63;6.40;;;14.90;99.90;;;;;;5037110;28;20466;-80
2023/06/02 04:46:55;;;;;;;9.65;6.18;;;14.80;99.90;;;;;;5040161;28;20383;-80
2023/06/02 04:49:21;;;;;;;7.18;6.10;;;14.90;99.90;;;;;;5017608;28;20437;-79
2023/06/02 04:51:46;;;;;;;9.00;6.32;;;14.60;99.90;;;;;;5017516;28;20473;-80
2023/06/02 04:54:14;;;;;;;6.75;5.82;;;16.00;99.90;;;;;;5037256;28;20463;-80
2023/06/02 04:56:40;;;;;;;7.65;6.00;;;15.10;99.90;;;;;;5016753;28;20406;-80
2023/06/02 04:59:05;;;;;;;7.30;6.20;;;15.00;99.90;;;;;;5034868;28;20391;-79
2023/06/02 05:01:31;;;;;;;8.18;5.82;;;14.90;99.90;;;;;;5016174;28;20397;-80
2023/06/02 05:03:56;;;;;;;6.93;6.22;;;14.80;99.90;;;;;;5034164;28;20893;-80
2023/06/02 05:06:22;;;;;;;6.47;5.77;;;15.20;99.90;;;;;;5034162;28;20379;-80
2023/06/02 05:08:47;;;;;;;7.93;6.40;;;14.70;99.90;;;;;;5034619;28;20433;-79
2023/06/02 05:11:13;;;;;;;10.37;7.17;;;14.60;99.90;;;;;;5017864;28;21003;-81
2023/06/02 05:13:38;;;;;;;9.20;6.67;;;15.10;99.90;;;;;;5031462;28;20402;-81
2023/06/02 05:16:04;;;;;;;8.05;6.60;;;15.50;99.90;;;;;;5030537;28;20482;-81
2023/06/02 05:18:30;;;;;;;8.77;6.90;;;15.00;99.90;;;;;;4999879;28;20812;-81
2023/06/02 05:20:55;;;;;;;9.47;7.30;;;15.30;99.90;;;;;;5019026;28;20431;-81
2023/06/02 05:23:21;;;;;;;9.60;6.93;;;15.00;99.90;;;;;;5031915;28;20982;-81
2023/06/02 05:25:50;;;;;;;10.23;6.90;;;;;;;;;;5138882;22;20431;-81
2023/06/02 05:28:15;;;;;;;11.52;7.20;;;15.00;99.90;;;;;;5043630;28;20404;-82
2023/06/02 05:30:41;;;;;;;8.65;6.68;;;14.90;99.90;;;;;;5022527;28;20414;-81
2023/06/02 05:33:06;;;;;;;10.73;6.70;;;14.90;99.90;;;;;;5043808;28;20800;-81
2023/06/02 05:35:32;;;;;;;10.90;6.95;;;14.50;99.90;;;;;;5000879;28;20407;-82
2023/06/02 05:37:57;;;;;;;8.77;7.13;;;15.30;99.90;;;;;;4989569;28;20383;-81
2023/06/02 05:40:23;;;;;;;8.20;7.00;;;15.00;99.90;;;;;;5006870;28;20468;-82
2023/06/02 05:42:49;;;;;;;8.63;6.32;;;14.70;99.90;;;;;;4991369;28;20415;-81
2023/06/02 05:45:14;;;;;;;10.68;7.38;;;15.30;99.90;;;;;;5007590;28;20403;-81
2023/06/02 05:47:40;;;;;;;10.50;7.47;;;15.30;99.90;;;;;;5004986;28;20392;-81
2023/06/02 05:50:06;;;;;;;9.13;6.70;;;14.90;99.90;;;;;;5010062;28;20464;-82
2023/06/02 05:52:32;;;;;;;8.80;7.40;;;14.80;99.90;;;;;;5003989;28;20489;-81
2023/06/02 05:54:57;;;;;;;10.07;7.57;;;15.40;99.90;;;;;;4999705;28;20881;-81
2023/06/02 05:57:23;;;;;;;9.27;6.87;;;15.20;99.90;;;;;;5014656;28;20588;-81
2023/06/02 05:59:48;;;;;;;10.50;7.68;;;15.50;99.90;;;;;;5008076;23;20399;-77
2023/06/02 06:02:14;;;;;;;10.30;7.07;;;15.00;99.90;;;;;;5044029;28;20474;-78
2023/06/02 06:04:40;;;;;;;9.77;6.40;;;15.00;99.90;;;;;;5048041;28;20879;-79
2023/06/02 06:07:06;;;;;;;8.15;6.88;;;15.10;99.90;;;;;;5038709;28;20402;-78
2023/06/02 06:09:31;;;;;;;9.47;7.53;;;15.40;99.90;;;;;;5039613;28;20462;-78
2023/06/02 06:11:57;;;;;;;9.55;8.30;;;15.60;99.90;;;;;;5023657;28;20404;-79
2023/06/02 06:14:22;;;;;;;9.93;7.03;;;15.20;99.90;;;;;;5019179;28;20434;-78
2023/06/02 06:16:48;;;;;;;10.03;7.20;;;15.40;99.90;;;;;;5022779;28;20412;-79
2023/06/02 06:19:13;;;;;;;8.98;7.03;;;15.40;99.90;;;;;;5022181;28;20399;-78
2023/06/02 06:21:39;;;;;;;10.63;7.70;;;;;;;;;;5004800;28;20458;-79
2023/06/02 06:24:06;;;;;;;9.77;6.78;;;14.70;99.90;;;;;;5021444;28;20800;-78
2023/06/02 06:26:31;;;;;;;8.90;7.18;;;15.20;99.90;;;;;;5005423;28;20437;-77
2023/06/02 06:28:57;;;;;;;11.35;7.70;;;15.40;99.90;;;;;;5020451;28;20405;-78
2023/06/02 06:31:23;;;;;;;10.85;7.10;;;15.00;99.90;;;;;;5022432;28;20395;-79
2023/06/02 06:33:49;;;;;;;11.93;8.10;;;15.40;99.90;;;;;;5025727;28;20384;-79
2023/06/02 06:36:14;;;;;;;8.93;7.10;;;15.10;99.90;;;;;;5024997;28;20399;-80
2023/06/02 06:38:40;;;;;;;9.90;7.30;;;15.40;99.90;;;;;;5046303;28;20379;-80
2023/06/02 06:41:06;;;;;;;10.80;7.75;;;15.10;99.90;;;;;;5043306;28;20433;-82
2023/06/02 06:43:32;;;;;;;11.13;7.50;;;14.80;99.90;;;;;;5033838;28;20464;-81
2023/06/02 06:45:59;;;;;;;9.30;7.60;;;15.30;99.90;;;;;;5019254;28;20394;-81
2023/06/02 06:48:24;;;;;;;10.20;7.45;;;15.10;99.90;;;;;;5027025;28;20404;-82
2023/06/02 06:50:50;;;;;;;8.73;7.53;;;15.90;99.90;;;;;;5026002;28;20387;-82
2023/06/02 06:53:16;;;;;;;9.13;7.40;;;15.50;99.90;;;;;;5032620;28;20387;-86
2023/06/02 06:55:41;;;;;;;9.90;6.97;;;15.30;99.90;;;;;;5033507;28;20399;-81
2023/06/02 06:58:07;;;;;;;8.70;7.37;;;15.80;99.90;;;;;;5030220;28;20402;-80
2023/06/02 07:00:32;;;;;;;11.10;7.70;;;15.60;99.90;;;;;;5003471;28;20408;-80
2023/06/02 07:02:58;;;;;;;10.13;7.05;;;15.50;99.90;;;;;;5020309;28;20440;-80
2023/06/02 07:05:23;;;;;;;9.60;7.60;;;15.50;99.90;;;;;;5022133;28;20476;-81
2023/06/02 07:07:49;;;;;;;8.27;7.03;;;15.20;99.90;;;;;;5030517;28;20487;-81
2023/06/02 07:10:15;;;;;;;10.27;7.70;;;16.10;99.90;;;;;;4996393;28;20392;-81
2023/06/02 07:12:41;;;;;;;10.90;7.60;;;15.70;99.90;;;;;;5023561;28;20391;-80
2023/06/02 07:15:07;;;;;;;9.73;7.30;;;15.60;99.90;;;;;;5019714;28;20486;-81
2023/06/02 07:17:33;;;;;;;9.38;7.22;;;16.00;99.90;;;;;;5027337;28;20407;-83
2023/06/02 07:19:59;;;;;;;9.05;7.13;;;15.40;99.90;;;;;;5031298;28;20459;-82
2023/06/02 07:22:24;;;;;;;10.88;7.85;;;15.70;99.90;;;;;;5026203;28;20775;-82
2023/06/02 07:24:51;;;;;;;11.95;7.50;;;15.70;99.90;;;;;;5016682;28;20939;-82
2023/06/02 07:27:16;;;;;;;11.20;7.07;;;15.80;99.90;;;;;;5003611;28;20436;-81
2023/06/02 07:29:42;;;;;;;10.73;7.03;;;16.00;99.90;;;;;;5000292;28;20421;-80
2023/06/02 07:32:08;;;;;;;9.80;7.20;;;16.40;99.90;;;;;;5016098;28;20396;-81
2023/06/02 07:34:35;;;;;;;11.10;7.97;;;16.50;99.90;;;;;;5014071;28;20390;-78
2023/06/02 07:37:02;;;;;;;9.90;6.88;;;16.30;99.90;;;;;;5014062;28;20389;-80
2023/06/02 07:39:28;;;;;;;10.63;7.25;;;16.40;99.90;;;;;;5013540;28;20397;-79
2023/06/02 07:41:53;;;;;;;8.73;7.82;;;16.50;99.90;;;;;;4996132;28;20413;-82
2023/06/02 07:44:19;;;;;;;8.03;6.67;;;16.10;99.90;;;;;;5014720;28;20974;-80
2023/06/02 07:46:45;;;;;;;10.70;7.85;;;16.30;99.90;;;;;;4996836;28;20388;-78
2023/06/02 07:49:12;;;;;;;8.18;7.38;;;16.70;99.90;;;;;;5034940;28;20455;-81
2023/06/02 07:51:38;;;;;;;10.00;7.88;;;16.50;99.90;;;;;;5017050;28;20418;-80
2023/06/02 07:54:04;;;;;;;10.57;7.90;;;16.10;99.90;;;;;;5034773;28;20387;-81
2023/06/02 07:56:29;;;;;;;8.63;7.50;;;16.50;99.90;;;;;;5034870;28;20928;-82
2023/06/02 07:58:55;;;;;;;9.52;7.68;;;16.70;99.90;;;;;;5035675;28;20398;-81
2023/06/02 08:01:20;;;;;;;10.33;7.40;;;16.90;99.90;;;;;;5017414;28;20403;-81
2023/06/02 08:03:46;;;;;;;9.87;7.83;;;16.40;99.90;;;;;;5011494;28;20406;-82
2023/06/02 08:06:13;;;;;;;9.20;7.72;;;16.60;99.90;;;;;;5014706;28;20770;-81
2023/06/02 08:08:39;;;;;;;8.70;7.63;;;16.10;99.90;;;;;;5012540;28;20384;-80
2023/06/02 08:11:04;;;;;;;9.18;7.22;;;16.50;99.90;;;;;;5018773;28;20383;-80
2023/06/02 08:13:30;;;;;;;8.40;7.40;;;16.50;99.90;;;;;;5030080;28;20415;-82
2023/06/02 08:15:56;;;;;;;11.63;8.03;;;17.00;99.90;;;;;;5007517;28;20460;-80
2023/06/02 08:18:21;;;;;;;10.60;7.50;;;16.60;99.90;;;;;;5029299;28;20396;-79
2023/06/02 08:20:47;;;;;;;10.07;7.90;;;16.50;99.90;;;;;;5028132;28;20935;-79
2023/06/02 08:23:12;;;;;;;10.10;7.30;;;16.00;99.90;;;;;;5022703;28;20407;-81
2023/06/02 08:25:39;;;;;;;10.13;7.20;;;16.40;99.90;;;;;;5039142;28;20467;-81
2023/06/02 08:28:07;;;;;;;8.52;7.63;;;18.60;99.90;;;;;;5011016;28;20393;-82
2023/06/02 08:30:35;;;;;;;10.07;7.70;;;16.50;99.90;;;;;;5021426;28;20386;-80
2023/06/02 08:33:02;;;;;;;9.40;7.82;;;16.70;99.90;;;;;;5034154;28;20479;-82
2023/06/02 08:35:29;;;;;;;10.35;7.80;;;16.30;99.90;;;;;;5036281;28;20949;-82
2023/06/02 08:37:55;;;;;;;9.63;7.97;;;16.40;99.90;;;;;;5029850;28;20452;-81
2023/06/02 08:40:25;;;;;;;9.20;7.80;;;16.60;99.90;;;;;;5037484;28;20398;-82
2023/06/02 08:42:51;;;;;;;8.82;7.10;;;17.00;99.90;;;;;;5018680;28;20431;-81
2023/06/02 08:45:20;;;;;;;9.32;7.35;;;16.70;99.90;;;;;;5037424;28;20729;-80
2023/06/02 08:47:53;;;;;;;8.55;6.85;;;16.80;99.90;;;;;;5019150;28;20383;-80
2023/06/02 08:50:22;;;;;;;9.60;7.55;;;16.90;99.90;;;;;;5031173;28;20416;-81
2023/06/02 08:52:50;;;;;;;7.15;6.43;;;17.60;99.90;;;;;;5035273;28;20386;-82
2023/06/02 08:55:16;;;;;;;11.55;7.80;;;17.40;99.90;;;;;;5038235;28;20391;-81
2023/06/02 08:57:42;;;;;;;10.45;7.45;;;17.50;99.90;;;;;;5037661;28;20452;-81
2023/06/02 09:00:08;;;;;;;9.13;7.05;;;17.10;99.90;;;;;;5036304;28;20391;-82
2023/06/02 09:02:34;;;;;;;11.65;7.18;;;18.00;99.90;;;;;;5036815;28;20448;-82
2023/06/02 09:05:03;;;;;;;12.60;7.45;;;17.30;99.90;;;;;;5037212;28;20387;-80
2023/06/02 09:07:28;;;;;;;8.20;6.70;;;17.30;99.90;;;;;;5017735;28;20438;-82
2023/06/02 09:09:55;;;;;;;9.70;7.70;;;18.70;99.90;;;;;;5017544;28;20761;-82
2023/06/02 09:12:21;;;;;;;8.68;6.93;;;17.60;99.90;;;;;;5018970;28;20765;-81
2023/06/02 09:14:48;;;;;;;9.13;6.90;;;17.50;99.90;;;;;;5036584;28;20872;-81
2023/06/02 09:17:30;;;;;;;9.85;8.10;;;18.20;99.90;;;;;;5018060;28;20445;-82
2023/06/02 09:19:58;;;;;;;9.15;7.75;;;19.60;99.90;;;;;;5036674;28;20387;-82
2023/06/02 09:22:25;;;;;;;7.30;6.47;;;17.70;99.90;;;;;;5036498;28;20439;-82
2023/06/02 09:24:54;;;;;;;7.90;6.70;;;17.80;99.90;;;;;;5001790;28;20475;-80
2023/06/02 09:27:20;;;;;;;8.90;6.80;;;18.80;99.90;;;;;;5002890;28;20385;-84
2023/06/02 09:29:47;;;;;;;7.60;6.80;;;18.40;99.90;;;;;;5001152;28;20808;-80
2023/06/02 09:32:17;;;;;;;7.47;6.40;;;18.40;99.90;;;;;;5034280;28;20395;-81
2023/06/02 09:34:45;;;;;;;7.82;7.00;;;19.80;99.90;;;;;;5030345;28;20387;-82
2023/06/02 09:37:16;;;;;;;8.17;6.70;;;18.40;99.90;;;;;;5016794;28;20399;-80
2023/06/02 09:39:48;;;;;;;8.27;7.22;;;18.50;99.90;;;;;;5036204;28;20446;-79
2023/06/02 09:42:15;;;;;;;8.57;7.40;;;21.10;99.90;;;;;;5017222;28;20892;-82
2023/06/02 09:45:00;;;;;;;8.60;7.63;;;18.00;99.90;;;;;;5036166;28;20398;-79
2023/06/02 09:47:25;;;;;;;7.65;6.85;;;18.40;99.90;;;;;;5046405;28;20382;-79
2023/06/02 09:49:52;;;;;;;11.53;7.50;;;20.70;99.90;;;;;;5043300;28;20387;-79
2023/06/02 09:52:18;;;;;;;7.28;6.57;;;18.50;99.90;;;;;;5034878;28;20391;-80
2023/06/02 09:54:45;;;;;;;7.80;6.30;;;18.30;99.90;;;;;;5028355;28;21022;-81
2023/06/02 09:57:12;;;;;;;8.63;6.90;;;18.80;99.90;;;;;;5014136;28;20473;-80
2023/06/02 09:59:39;;;;;;;8.70;7.15;;;19.50;99.90;;;;;;4998266;28;20392;-82
2023/06/02 10:02:05;;;;;;;8.60;7.70;;;18.70;99.90;;;;;;5015097;28;20417;-81
2023/06/02 10:04:31;;;;;;;9.10;7.35;;;18.80;99.90;;;;;;5031321;28;20402;-81
2023/06/02 10:07:06;;;;;;;11.17;8.07;;;19.10;99.90;;;;;;5017193;28;20881;-80
2023/06/02 10:09:40;;;;;;;7.70;6.90;;;19.10;99.90;;;;;;5035377;28;20414;-79
2023/06/02 10:12:06;;;;;;;10.10;7.93;;;19.30;99.90;;;;;;5034389;28;20433;-81
2023/06/02 10:14:59;;;;;;;7.43;6.60;;;19.60;99.90;;;;;;5034214;28;20403;-81
2023/06/02 10:17:36;;;;;;;9.70;8.00;;;19.80;99.90;;;;;;5034389;28;20900;-82
2023/06/02 10:20:30;;;;;;;7.50;6.75;;;19.50;99.90;;;;;;5020456;28;20401;-82
2023/06/02 10:23:46;;;;;;;9.07;6.60;;;19.70;99.90;;;;;;5029057;28;20897;-81
2023/06/02 10:26:18;;;;;;;8.82;7.30;;;19.60;99.90;;;;;;4978778;28;20403;-80
2023/06/02 10:28:45;;;;;;;7.82;7.03;;;19.60;99.90;;;;;;5025345;28;20399;-83
2023/06/02 10:31:11;;;;;;;9.80;7.03;;;20.80;99.90;;;;;;5013790;28;20404;-81
2023/06/02 10:33:48;;;;;;;10.90;7.30;;;19.90;99.90;;;;;;5007251;28;20387;-81
2023/06/02 10:36:17;;;;;;;9.00;7.05;;;19.70;99.90;;;;;;5031809;28;20886;-79
2023/06/02 10:38:43;;;;;;;8.90;7.50;;;19.90;99.90;;;;;;5018616;28;20385;-81
2023/06/02 10:41:09;;;;;;;9.15;6.93;;;20.20;99.90;;;;;;5011987;28;20419;-82
2023/06/02 10:43:35;;;;;;;9.67;7.50;;;22.80;99.90;;;;;;5033795;28;20402;-80
2023/06/02 10:46:17;;;;;;;8.07;6.90;;;22.00;99.90;;;;;;5012255;28;20408;-82
2023/06/02 10:48:43;;;;;;;7.27;6.57;;;19.90;99.90;;;;;;5022769;28;20787;-80
2023/06/02 10:51:10;;;;;;;10.43;7.07;;;21.20;99.90;;;;;;5016756;28;20393;-82
2023/06/02 10:54:07;;;;;;;7.75;6.95;;;20.30;99.90;;;;;;5022489;28;20395;-80
2023/06/02 10:56:35;;;;;;;11.20;6.88;;;20.40;99.90;;;;;;5015557;28;20387;-82
2023/06/02 10:59:00;;;;;;;8.07;7.07;;;20.50;99.90;;;;;;5016624;28;20478;-81
2023/06/02 11:01:45;;;;;;;8.70;6.87;;;20.70;99.90;;;;;;5014593;28;20409;-80
2023/06/02 11:04:25;;;;;;;8.65;7.20;;;20.50;99.90;;;;;;5023663;28;20403;-81
2023/06/02 11:07:15;;;;;;;10.00;7.28;;;20.90;99.90;;;;;;5017216;28;20901;-80
2023/06/02 11:09:43;;;;;;;8.30;6.78;;;21.10;99.90;;;;;;5013443;28;20852;-80
2023/06/02 11:12:09;;;;;;;10.48;6.60;;;21.40;99.90;;;;;;5016030;28;20470;-80
2023/06/02 11:15:04;;;;;;;7.75;6.60;;;21.50;99.90;;;;;;5014918;28;20389;-81
2023/06/02 11:17:37;;;;;;;7.10;6.35;;;21.80;99.90;;;;;;4996914;28;20528;-78
2023/06/02 11:20:07;;;;;;;8.75;6.80;;;21.60;99.90;;;;;;5033041;28;20416;-80
2023/06/02 11:22:33;;;;;;;7.72;6.30;;;22.00;99.90;;;;;;5033186;28;20406;-81
2023/06/02 11:25:01;;;;;;;7.50;6.80;;;21.40;99.90;;;;;;5034423;28;20388;-81
2023/06/02 11:27:38;;;;;;;7.72;6.60;;;22.50;99.90;;;;;;5033024;28;20461;-81
2023/06/02 11:30:09;;;;;;;7.95;6.60;;;21.90;99.90;;;;;;5015261;28;20844;-80
2023/06/02 11:32:35;;;;;;;7.55;6.70;;;22.10;99.90;;;;;;5016265;28;20411;-82
2023/06/02 11:35:02;;;;;;;7.90;6.30;;;23.90;99.90;;;;;;5032293;28;20445;-81
2023/06/02 11:37:27;;;;;;;7.85;6.20;;;23.30;99.90;;;;;;5015744;28;20394;-79
2023/06/02 11:39:54;;;;;;;6.47;5.87;;;23.30;99.90;;;;;;5046775;28;20392;-79
2023/06/02 11:42:20;;;;;;;7.72;6.93;;;23.70;99.90;;;;;;5045024;28;20403;-79
2023/06/02 11:44:49;;;;;;;8.30;6.30;;;23.50;99.90;;;;;;5051132;28;20398;-79
2023/06/02 11:47:21;;;;;;;8.27;6.85;;;25.80;99.90;;;;;;5045264;28;20391;-81
2023/06/02 11:52:22;;;;;;;7.13;6.28;;;;;;;;;;4166337;26;20437;-79
2023/06/02 11:54:55;;;;;;;9.63;6.05;;;25.10;99.90;;;;;;4979314;28;20379;-81
2023/06/02 11:57:34;;;;;;;7.05;5.65;;;24.70;99.90;;;;;;4995168;28;20435;-81
2023/06/02 12:00:38;;;;;;;6.70;6.00;;;25.90;99.90;;;;;;4996159;28;20390;-80
2023/06/02 12:03:07;;;;;;;7.53;5.88;;;25.60;99.90;;;;;;5012206;23;20478;-81
2023/06/02 12:05:36;;;;;;;7.00;6.30;;;25.40;99.90;;;;;;4985256;28;20426;-82
2023/06/02 12:08:20;;;;;;;7.25;5.75;;;25.20;99.90;;;;;;4976691;28;20412;-81
2023/06/02 12:10:47;;;;;;;7.88;5.70;;;25.20;99.90;;;;;;4984250;28;20410;-82
2023/06/02 12:13:29;;;;;;;6.77;5.97;;;25.90;99.90;;;;;;4994226;28;20410;-82
2023/06/02 12:15:57;;;;;;;6.00;5.40;;;24.70;99.90;;;;;;4999702;28;20428;-84
2023/06/02 12:18:31;;;;;;;7.50;5.95;;;24.90;99.90;;;;;;4996729;28;20947;-82
2023/06/02 12:20:59;;;;;;;5.97;5.37;;;25.40;99.90;;;;;;4996832;28;20397;-81
2023/06/02 12:23:42;;;;;;;7.18;5.90;;;24.90;99.90;;;;;;4997301;28;20429;-83
2023/06/02 12:26:08;;;;;;;6.87;6.17;;;26.60;99.90;;;;;;4995320;28;20386;-82
2023/06/02 12:28:33;;;;;;;6.63;6.03;;;25.20;99.90;;;;;;4995301;28;20418;-81
2023/06/02 12:30:59;;;;;;;6.20;5.60;;;24.40;99.90;;;;;;4998728;28;20390;-81
2023/06/02 12:33:25;;;;;;;6.00;5.40;;;26.00;99.90;;;;;;4996195;28;20413;-81
2023/06/02 12:35:50;;;;;;;6.22;5.72;;;25.00;99.90;;;;;;4996421;28;20394;-82
2023/06/02 12:38:16;;;;;;;6.00;5.50;;;26.30;99.90;;;;;;4996504;28;20398;-82
2023/06/02 12:40:41;;;;;;;6.77;5.47;;;27.80;99.90;;;;;;4995349;28;20410;-82
2023/06/02 12:43:07;;;;;;;6.20;5.60;;;26.90;99.90;;;;;;4998001;28;20433;-82
2023/06/02 12:45:33;;;;;;;6.10;5.50;;;27.30;99.90;;;;;;4995613;28;20403;-81
2023/06/02 12:47:59;;;;;;;6.07;5.47;;;25.30;99.90;;;;;;4994909;28;20419;-83
2023/06/02 12:50:26;;;;;;;6.70;5.70;;;25.50;99.90;;;;;;4996742;28;20398;-84